WARNING - Change wsUserSettings.php: $SITE["topfolder"] from : DATOS/ to: ./
Welcome to our new website - Welkom op onze vernieuwde website - Bienvenue sur notre nouveau site web - Willkommen auf unserer neuen Website
Check our progress frequently. Prüfen Sie unsere Fortschritte regelmäßig. Consultez notre progression fréquemment. Komt u straks nog eens terug


visit paypall to install this item



Thunder radar more information blitzortung!


Rain radar more information rain snow radar


Visita nuestra red de sitios de meteo:

Template documentation
and downloads

And another site



No particular awareness of the weather is required.    There are no Weather-warnings

Informes METAR proximidad

   
EHVK - Volkel Rnlafb, Netherlands
Distancia hasta la estación: SW 18 km
Actualización: 12-08-2020 21:55
Nublado  
Nublado  
   Viento: SE 14.8 km/h
Viento: SE 14.8 km/h
Temperatura: 27°C
Índice de calor: 27°C
Punto de rocio: 16°C
Humedad: 51%
Barometro: 1012 hPa
Nublado: Nublado
Visibilidad: More than 10 km
detalles de la nube: Nublado 30000 ft
EHVK 121955Z AUTO 14008KT 110V170 9999 OVC300 27/16 Q1012 BLU
EDLV - Niederrhein, Germany
Distancia hasta la estación: SE 25 km
Actualización: 12-08-2020 21:50
Claros  
Claros  
   Viento: SSE 13 km/h
Viento: SSE 13 km/h
Temperatura: 27°C
Índice de calor: 28°C
Punto de rocio: 18°C
Humedad: 58%
Barometro: 1013 hPa
Visibilidad: More than 10 km
detalles de la nube: Claros
EDLV 121950Z 16007KT 090V200 CAVOK 27/18 Q1013
EHDL - Deelen Rnlafb, Netherlands
Distancia hasta la estación: N 35 km
Actualización: 12-08-2020 21:55
Nublado  
Nublado  
   Viento: East 9.3 km/h
Viento: East 9.3 km/h
Temperatura: 27°C
Índice de calor: 27°C
Punto de rocio: 16°C
Humedad: 51%
Barometro: 1013 hPa
Nublado: Nublado
Visibilidad: More than 10 km
detalles de la nube: Nublado 33000 ft
EHDL 121955Z AUTO 10005KT 040V170 9999 OVC330 27/16 Q1013 BLU
EHEH - Eindhoven Rnlafb, Netherlands
Distancia hasta la estación: SW 48 km
Actualización: 12-08-2020 21:55
Nublado  
Nublado  
   Viento: SSE 14.8 km/h
Viento: SSE 14.8 km/h
Temperatura: 27°C
Índice de calor: 28°C
Punto de rocio: 17°C
Humedad: 54%
Barometro: 1012 hPa
Nublado: Nublado
Visibilidad: More than 10 km
detalles de la nube: Nublado 26000 ft
EHEH 121955Z AUTO 15008KT 110V200 9999 OVC260 27/17 Q1012 BLU TEMPO FEW060CB
EHGR - Gilze-Rijen Rnla, Netherlands
Distancia hasta la estación: WSW 70 km
Actualización: 12-08-2020 21:55
Nublado  
Nublado  
   Viento: SSE 7.4 km/h
Viento: SSE 7.4 km/h
Temperatura: 28°C
Índice de calor: 29°C
Punto de rocio: 19°C
Humedad: 58%
Barometro: 1012 hPa
Nublado: Nublado
Visibilidad: More than 10 km
detalles de la nube: Nublado 29000 ft
EHGR 121955Z AUTO 15004KT 100V180 9999 OVC290 28/19 Q1012 BLU
EBBL - Kleine-Brogel(Ba, Belgium
Distancia hasta la estación: SSW 71 km
Actualización: 12-08-2020 21:55
Nublado  
Nublado  
   Viento: varía 3.7 km/h
Viento: varía 3.7 km/h
Temperatura: 26°C
Punto de rocio: 18°C
Humedad: 61%
Barometro: 1012 hPa
Nublado: Nublado
Visibilidad: More than 10 km
detalles de la nube: Nublado 12000 ft
EBBL 121955Z AUTO VRB02KT 9999 OVC120/// 26/18 Q1012 BLU

Guión original por  Saratoga-weather.org Adaptado para la plantilla por  Weerstation Leuven